Time;durP1;ratioP1;P1;durP2;ratioP2;P2;SDS_P1;SDS_P2;PMS_P1;PMS_P2;Temp;Humidity;BMP_temperature;BMP_pressure;BME280_temperature;BME280_humidity;BME280_pressure;Samples;Min_cycle;Max_cycle;Signal;HPM_P1;HPM_P2
2023/05/25 00:00:07;;;;;;;;;15.60;14.80;;;;;;;;5074544;27;45391;-59
2023/05/25 00:02:33;;;;;;;;;13.40;13.20;;;;;;;;5074620;27;45375;-57
2023/05/25 00:04:59;;;;;;;;;17.00;14.00;;;;;;;;5073420;28;45487;-58
2023/05/25 00:07:25;;;;;;;;;11.40;11.40;;;;;;;;5074366;27;47584;-60
2023/05/25 00:09:50;;;;;;;;;11.25;10.00;;;;;;;;5074440;27;45199;-59
2023/05/25 00:12:15;;;;;;;;;14.25;11.00;;;;;;;;5073024;28;45293;-60
2023/05/25 00:14:41;;;;;;;;;13.00;12.00;;;;;;;;5066003;27;45619;-59
2023/05/25 00:17:08;;;;;;;;;13.75;10.50;;;;;;;;5077076;27;46792;-58
2023/05/25 00:19:34;;;;;;;;;11.00;10.00;;;;;;;;5077875;27;45246;-59
2023/05/25 00:22:02;;;;;;;;;12.75;12.25;;;;;;;;5076526;28;45388;-60
2023/05/25 00:24:28;;;;;;;;;14.00;11.00;;;;;;;;5060466;28;45261;-57
2023/05/25 00:26:53;;;;;;;;;11.20;10.60;;;;;;;;5075881;28;47045;-59
2023/05/25 00:29:18;;;;;;;;;12.75;12.00;;;;;;;;5077967;28;45374;-57
2023/05/25 00:31:44;;;;;;;;;12.25;11.50;;;;;;;;5077931;28;45437;-60
2023/05/25 00:34:09;;;;;;;;;13.75;12.25;;;;;;;;5077958;27;45578;-59
2023/05/25 00:36:34;;;;;;;;;13.00;12.75;;;;;;;;5075826;28;45886;-57
2023/05/25 00:39:00;;;;;;;;;15.50;12.50;;;;;;;;5077555;28;45325;-61
2023/05/25 00:41:25;;;;;;;;;14.00;12.00;;;;;;;;5077258;28;45324;-58
2023/05/25 00:43:51;;;;;;;;;13.75;11.00;;;;;;;;5076139;28;45279;-61
2023/05/25 00:46:16;;;;;;;;;13.75;13.00;;;;;;;;5077146;28;46196;-59
2023/05/25 00:48:42;;;;;;;;;17.00;13.75;;;;;;;;5077774;28;45768;-57
2023/05/25 00:51:07;;;;;;;;;17.25;15.00;;;;;;;;5077222;28;45307;-59
2023/05/25 00:53:32;;;;;;;;;15.75;14.25;;;;;;;;5059257;28;45867;-60
2023/05/25 00:56:04;;;;;;;;;15.00;13.50;;;;;;;;5077156;28;45425;-58
2023/05/25 00:58:30;;;;;;;;;11.00;11.00;;;;;;;;5058890;28;46089;-59
2023/05/25 01:00:56;;;;;;;;;14.00;13.60;;;;;;;;5059128;28;45195;-58
2023/05/25 01:03:26;;;;;;;;;15.80;13.00;;;;;;;;5077283;27;45172;-54
2023/05/25 01:05:51;;;;;;;;;17.40;13.40;;;;;;;;5059596;28;47688;-60
2023/05/25 01:08:17;;;;;;;;;13.75;12.75;;;;;;;;5057992;28;45329;-60
2023/05/25 01:10:42;;;;;;;;;14.00;14.00;;;;;;;;5071453;27;45469;-62
2023/05/25 01:13:08;;;;;;;;;14.50;13.00;;;;;;;;5063096;27;45321;-59
2023/05/25 01:15:33;;;;;;;;;14.75;13.00;;;;;;;;5063720;28;45442;-59
2023/05/25 01:17:58;;;;;;;;;13.75;13.75;;;;;;;;5075679;28;45443;-58
2023/05/25 01:20:28;;;;;;;;;15.75;12.75;;;;;;;;5077240;27;45397;-59
2023/05/25 01:22:54;;;;;;;;;14.20;11.60;;;;;;;;5077010;27;45509;-59
2023/05/25 01:25:39;;;;;;;;;14.80;12.00;;;;;;;;5076140;27;45688;-59
2023/05/25 01:28:24;;;;;;;;;14.60;12.80;;;;;;;;5076762;27;45326;-59
2023/05/25 01:30:50;;;;;;;;;15.60;13.20;;;;;;;;5058855;28;45345;-58
2023/05/25 01:33:18;;;;;;;;;14.00;12.75;;;;;;;;5075639;28;45539;-59
2023/05/25 01:35:44;;;;;;;;;18.00;12.60;;;;;;;;5058129;28;47561;-60
2023/05/25 01:38:09;;;;;;;;;12.25;12.25;;;;;;;;5057827;28;45329;-60
2023/05/25 01:40:34;;;;;;;;;14.50;13.00;;;;;;;;5076760;27;45405;-55
2023/05/25 01:43:00;;;;;;;;;16.25;13.50;;;;;;;;5075379;28;45546;-59
2023/05/25 01:45:25;;;;;;;;;13.50;12.00;;;;;;;;5075030;28;46757;-58
2023/05/25 01:48:02;;;;;;;;;18.25;12.00;;;;;;;;5076373;28;45620;-57
2023/05/25 01:50:47;;;;;;;;;17.20;13.20;;;;;;;;5075072;28;45315;-59
2023/05/25 01:53:15;;;;;;;;;15.00;11.00;;;;;;;;5076647;27;45320;-59
2023/05/25 01:55:45;;;;;;;;;14.80;13.80;;;;;;;;5076295;27;45446;-58
2023/05/25 01:58:11;;;;;;;;;12.20;12.20;;;;;;;;5074714;28;45287;-58
2023/05/25 02:00:36;;;;;;;;;13.25;12.25;;;;;;;;5056194;27;45188;-58
2023/05/25 02:03:01;;;;;;;;;16.25;13.50;;;;;;;;5072608;28;45536;-58
2023/05/25 02:05:27;;;;;;;;;15.50;15.50;;;;;;;;5076024;27;46488;-59
2023/05/25 02:07:52;;;;;;;;;12.50;12.50;;;;;;;;5076000;27;45166;-58
2023/05/25 02:10:17;;;;;;;;;10.50;9.75;;;;;;;;5076425;27;45355;-57
2023/05/25 02:12:43;;;;;;;;;13.75;12.00;;;;;;;;5076364;28;45330;-57
2023/05/25 02:15:09;;;;;;;;;14.50;13.75;;;;;;;;5075901;28;46161;-59
2023/05/25 02:17:35;;;;;;;;;17.20;14.40;;;;;;;;5076300;27;45893;-60
2023/05/25 02:20:01;;;;;;;;;10.60;9.80;;;;;;;;5076234;27;45425;-59
2023/05/25 02:22:26;;;;;;;;;15.75;12.00;;;;;;;;5075822;28;45422;-58
2023/05/25 02:24:51;;;;;;;;;17.50;15.50;;;;;;;;5074704;28;45857;-57
2023/05/25 02:27:17;;;;;;;;;14.25;12.00;;;;;;;;5075851;28;45478;-58
2023/05/25 02:29:42;;;;;;;;;13.75;12.50;;;;;;;;5076357;27;45336;-56
2023/05/25 02:32:07;;;;;;;;;12.25;11.00;;;;;;;;5074239;28;45407;-58
2023/05/25 02:34:32;;;;;;;;;15.50;12.50;;;;;;;;5075680;28;45327;-57
2023/05/25 02:36:59;;;;;;;;;13.00;13.00;;;;;;;;5075856;27;45381;-59
2023/05/25 02:39:26;;;;;;;;;15.40;13.00;;;;;;;;5075463;27;45357;-57
2023/05/25 02:41:52;;;;;;;;;15.80;12.00;;;;;;;;5074382;28;45602;-57
2023/05/25 02:44:17;;;;;;;;;17.00;13.00;;;;;;;;5075558;27;46087;-59
2023/05/25 02:46:42;;;;;;;;;14.75;12.75;;;;;;;;5075814;27;45279;-60
2023/05/25 02:49:07;;;;;;;;;13.25;13.00;;;;;;;;5075642;27;45318;-58
2023/05/25 02:51:33;;;;;;;;;16.25;13.00;;;;;;;;5075762;28;45563;-58
2023/05/25 02:53:58;;;;;;;;;13.50;13.50;;;;;;;;5074023;28;47858;-59
2023/05/25 02:56:24;;;;;;;;;13.75;12.25;;;;;;;;5075398;27;45264;-56
2023/05/25 02:58:49;;;;;;;;;13.00;11.25;;;;;;;;5075721;27;45611;-58
2023/05/25 03:01:17;;;;;;;;;12.00;11.00;;;;;;;;5076001;27;45290;-59
2023/05/25 03:03:43;;;;;;;;;14.00;13.00;;;;;;;;5073839;28;45527;-59
2023/05/25 03:06:09;;;;;;;;;16.20;13.20;;;;;;;;5075534;27;45317;-57
2023/05/25 03:08:34;;;;;;;;;14.50;12.50;;;;;;;;5074197;28;45411;-58
2023/05/25 03:10:59;;;;;;;;;12.00;12.00;;;;;;;;5075818;27;45470;-59
2023/05/25 03:13:25;;;;;;;;;12.25;11.00;;;;;;;;5075054;28;46608;-56
2023/05/25 03:15:51;;;;;;;;;14.50;12.00;;;;;;;;5073978;28;45379;-58
2023/05/25 03:18:16;;;;;;;;;13.25;11.00;;;;;;;;5073791;28;45326;-57
2023/05/25 03:20:42;;;;;;;;;12.50;10.25;;;;;;;;5075708;27;45301;-58
2023/05/25 03:23:08;;;;;;;;;13.00;13.00;;;;;;;;5056303;27;48480;-61
2023/05/25 03:25:33;;;;;;;;;14.75;11.00;;;;;;;;5067299;27;45292;-59
2023/05/25 03:27:58;;;;;;;;;20.50;15.75;;;;;;;;5075140;28;45233;-58
2023/05/25 03:30:24;;;;;;;;;10.25;10.25;;;;;;;;5075661;27;45741;-59
2023/05/25 03:32:49;;;;;;;;;14.75;11.75;;;;;;;;5073469;28;46319;-58
2023/05/25 03:35:14;;;;;;;;;17.25;14.25;;;;;;;;5075044;27;45360;-58
2023/05/25 03:37:40;;;;;;;;;17.25;15.00;;;;;;;;5075472;27;45362;-57
2023/05/25 03:40:05;;;;;;;;;12.00;12.00;;;;;;;;5074672;27;45450;-58
2023/05/25 03:42:31;;;;;;;;;15.25;12.75;;;;;;;;5074495;27;46052;-58
2023/05/25 03:44:56;;;;;;;;;11.75;10.50;;;;;;;;5074725;28;45865;-57
2023/05/25 03:47:21;;;;;;;;;12.50;10.50;;;;;;;;5073373;28;45410;-56
2023/05/25 03:49:46;;;;;;;;;11.00;10.25;;;;;;;;5074395;28;45448;-57
2023/05/25 03:52:12;;;;;;;;;8.00;8.00;;;;;;;;5074300;28;46539;-58
2023/05/25 03:54:37;;;;;;;;;10.00;9.00;;;;;;;;5074685;28;45464;-56
2023/05/25 03:57:02;;;;;;;;;10.50;10.50;;;;;;;;5074707;27;45401;-58
2023/05/25 03:59:28;;;;;;;;;12.75;9.25;;;;;;;;5074410;27;45377;-56
2023/05/25 04:01:53;;;;;;;;;9.75;9.50;;;;;;;;5074552;28;45962;-58
2023/05/25 04:04:19;;;;;;;;;17.25;12.00;;;;;;;;5074315;27;45342;-59
2023/05/25 04:06:47;;;;;;;;;13.75;12.00;;;;;;;;5074543;27;45416;-58
2023/05/25 04:09:12;;;;;;;;;10.60;9.80;;;;;;;;5074640;28;45502;-59
2023/05/25 04:11:38;;;;;;;;;15.00;12.25;;;;;;;;5074394;27;46919;-57
2023/05/25 04:14:03;;;;;;;;;13.00;12.00;;;;;;;;5074305;28;45317;-58
2023/05/25 04:16:28;;;;;;;;;11.00;10.50;;;;;;;;5073088;28;45292;-56
2023/05/25 04:18:54;;;;;;;;;11.75;10.00;;;;;;;;5074641;28;45362;-57
2023/05/25 04:21:20;;;;;;;;;20.50;13.25;;;;;;;;5074511;27;46632;-56
2023/05/25 04:23:45;;;;;;;;;15.25;11.50;;;;;;;;5073844;27;45211;-59
2023/05/25 04:26:10;;;;;;;;;11.25;10.25;;;;;;;;5072804;27;45423;-59
2023/05/25 04:28:36;;;;;;;;;11.50;11.00;;;;;;;;5068376;27;45616;-59
2023/05/25 04:31:02;;;;;;;;;12.25;10.25;;;;;;;;5073141;28;45427;-59
2023/05/25 04:33:28;;;;;;;;;11.60;11.60;;;;;;;;5073815;28;45391;-58
2023/05/25 04:35:54;;;;;;;;;12.25;11.25;;;;;;;;5074546;27;45422;-58
2023/05/25 04:38:19;;;;;;;;;15.25;13.00;;;;;;;;5074035;27;45454;-59
2023/05/25 04:40:47;;;;;;;;;20.25;15.50;;;;;;;;5073381;28;45369;-59
2023/05/25 04:43:17;;;;;;;;;11.40;9.60;;;;;;;;5073780;27;45358;-59
2023/05/25 04:45:42;;;;;;;;;12.40;11.80;;;;;;;;5074538;27;45368;-58
2023/05/25 04:48:08;;;;;;;;;9.50;9.50;;;;;;;;5074243;28;45473;-57
2023/05/25 04:50:33;;;;;;;;;19.25;16.75;;;;;;;;5074344;27;45327;-56
2023/05/25 04:52:58;;;;;;;;;13.75;10.75;;;;;;;;5074156;28;45363;-57
2023/05/25 04:55:24;;;;;;;;;11.25;9.25;;;;;;;;5074037;27;45495;-60
2023/05/25 04:57:52;;;;;;;;;11.75;11.25;;;;;;;;5074292;27;45273;-58
2023/05/25 05:00:17;;;;;;;;;11.20;11.20;;;;;;;;5073808;27;46513;-57
2023/05/25 05:02:43;;;;;;;;;11.25;10.25;;;;;;;;5076443;28;45573;-60
2023/05/25 05:05:08;;;;;;;;;16.00;13.50;;;;;;;;5077682;28;45364;-59
2023/05/25 05:07:33;;;;;;;;;14.75;11.50;;;;;;;;5076446;28;45253;-58
2023/05/25 05:09:59;;;;;;;;;12.75;11.75;;;;;;;;5077548;27;45532;-58
2023/05/25 05:12:24;;;;;;;;;14.75;11.75;;;;;;;;5076717;28;45378;-57
2023/05/25 05:14:49;;;;;;;;;14.50;14.50;;;;;;;;5077049;28;45423;-57
2023/05/25 05:17:16;;;;;;;;;14.75;11.00;;;;;;;;5077498;27;45354;-58
2023/05/25 05:19:41;;;;;;;;;16.20;15.80;;;;;;;;5076756;27;46312;-58
2023/05/25 05:22:08;;;;;;;;;14.50;10.00;;;;;;;;5076686;27;45433;-59
2023/05/25 05:24:33;;;;;;;;;14.20;12.00;;;;;;;;5076949;27;45324;-59
2023/05/25 05:27:00;;;;;;;;;14.75;12.25;;;;;;;;5077383;27;45380;-58
2023/05/25 05:29:27;;;;;;;;;13.60;12.00;;;;;;;;5076740;27;46442;-59
2023/05/25 05:31:53;;;;;;;;;14.20;14.20;;;;;;;;5075697;28;45756;-56
2023/05/25 05:34:18;;;;;;;;;9.50;9.50;;;;;;;;5076886;28;45360;-57
2023/05/25 05:36:43;;;;;;;;;17.25;14.75;;;;;;;;5076800;27;45673;-57
2023/05/25 05:39:09;;;;;;;;;16.00;12.75;;;;;;;;5076537;28;45337;-58
2023/05/25 05:41:34;;;;;;;;;16.50;13.75;;;;;;;;5058441;28;45350;-59
2023/05/25 05:44:00;;;;;;;;;15.00;11.25;;;;;;;;5077033;27;45336;-59
2023/05/25 05:46:25;;;;;;;;;15.50;13.75;;;;;;;;5077444;27;45314;-60
2023/05/25 05:48:51;;;;;;;;;17.50;15.25;;;;;;;;5076861;28;45758;-58
2023/05/25 05:51:16;;;;;;;;;16.75;13.00;;;;;;;;5076962;27;45358;-60
2023/05/25 05:53:41;;;;;;;;;15.25;12.75;;;;;;;;5077119;28;45524;-58
2023/05/25 05:56:12;;;;;;;;;16.50;13.25;;;;;;;;5076763;28;45438;-60
2023/05/25 05:58:37;;;;;;;;;17.20;15.00;;;;;;;;5075196;28;46170;-58
2023/05/25 06:01:03;;;;;;;;;13.75;11.75;;;;;;;;5076741;28;45143;-60
2023/05/25 06:03:28;;;;;;;;;12.20;9.80;;;;;;;;5076647;28;45304;-57
2023/05/25 06:05:54;;;;;;;;;17.75;14.50;;;;;;;;5077040;27;45117;-57
2023/05/25 06:08:20;;;;;;;;;14.75;12.25;;;;;;;;5074871;28;46487;-58
2023/05/25 06:10:45;;;;;;;;;15.75;14.50;;;;;;;;5076253;27;45171;-57
2023/05/25 06:13:10;;;;;;;;;16.75;14.25;;;;;;;;5076222;27;45219;-56
2023/05/25 06:15:36;;;;;;;;;14.50;9.50;;;;;;;;5076885;27;45268;-56
2023/05/25 06:18:01;;;;;;;;;13.25;8.50;;;;;;;;5076286;27;46424;-58
2023/05/25 06:20:26;;;;;;;;;16.50;13.75;;;;;;;;5074500;28;45635;-57
2023/05/25 06:22:52;;;;;;;;;14.75;11.00;;;;;;;;5075204;28;45471;-56
2023/05/25 06:25:18;;;;;;;;;11.20;11.00;;;;;;;;5076700;28;45468;-56
2023/05/25 06:27:43;;;;;;;;;16.50;13.50;;;;;;;;5076123;28;45804;-61
2023/05/25 06:30:08;;;;;;;;;11.25;11.25;;;;;;;;5074505;28;46123;-57
2023/05/25 06:32:34;;;;;;;;;17.25;10.75;;;;;;;;5074686;27;45855;-57
2023/05/25 06:34:59;;;;;;;;;12.00;12.00;;;;;;;;5074998;28;45415;-56
2023/05/25 06:37:25;;;;;;;;;11.50;7.75;;;;;;;;5075891;27;45662;-57
2023/05/25 06:39:51;;;;;;;;;12.00;12.00;;;;;;;;5074398;28;45553;-57
2023/05/25 06:42:16;;;;;;;;;12.75;10.00;;;;;;;;5076415;27;45472;-59
2023/05/25 06:44:41;;;;;;;;;10.00;10.00;;;;;;;;5042516;27;45352;-56
2023/05/25 06:47:06;;;;;;;;;15.75;12.00;;;;;;;;5074249;28;47287;-56
2023/05/25 06:49:32;;;;;;;;;14.25;10.00;;;;;;;;5074229;28;45743;-57
2023/05/25 06:51:57;;;;;;;;;11.75;10.25;;;;;;;;5076231;27;45283;-55
2023/05/25 06:54:22;;;;;;;;;15.25;13.50;;;;;;;;5075649;27;45250;-57
2023/05/25 06:56:48;;;;;;;;;10.50;10.50;;;;;;;;5074010;28;48286;-60
2023/05/25 06:59:13;;;;;;;;;10.50;9.00;;;;;;;;5075588;27;45418;-58
2023/05/25 07:01:38;;;;;;;;;11.00;9.25;;;;;;;;5029104;28;45688;-56
2023/05/25 07:04:04;;;;;;;;;15.50;12.75;;;;;;;;5076000;27;45451;-60
2023/05/25 07:06:29;;;;;;;;;16.25;12.00;;;;;;;;5082723;27;45890;-59
2023/05/25 07:08:55;;;;;;;;;14.00;14.00;;;;;;;;5071487;27;45304;-54
2023/05/25 07:11:22;;;;;;;;;10.25;9.00;;;;;;;;5072654;27;45332;-58
2023/05/25 07:13:47;;;;;;;;;13.20;10.40;;;;;;;;5061007;27;46188;-60
2023/05/25 07:16:13;;;;;;;;;7.25;7.25;;;;;;;;5073194;27;46359;-58
2023/05/25 07:18:39;;;;;;;;;9.50;8.50;;;;;;;;5092568;27;45696;-61
2023/05/25 07:21:05;;;;;;;;;14.60;11.20;;;;;;;;5070060;27;45476;-59
2023/05/25 07:23:31;;;;;;;;;10.60;10.60;;;;;;;;5072800;27;45509;-61
2023/05/25 07:25:56;;;;;;;;;12.00;9.75;;;;;;;;5067788;27;46362;-62
2023/05/25 07:28:21;;;;;;;;;11.25;9.50;;;;;;;;5056118;28;45379;-62
2023/05/25 07:30:47;;;;;;;;;9.75;8.75;;;;;;;;5053578;28;45367;-62
2023/05/25 07:33:12;;;;;;;;;10.75;9.50;;;;;;;;5054992;28;45471;-62
2023/05/25 07:35:37;;;;;;;;;12.50;9.25;;;;;;;;5054809;28;46202;-61
2023/05/25 07:38:05;;;;;;;;;18.50;10.25;;;;;;;;5054328;28;45174;-61
2023/05/25 07:40:31;;;;;;;;;7.60;7.60;;;;;;;;5053116;28;45633;-63
2023/05/25 07:42:56;;;;;;;;;13.00;11.00;;;;;;;;5054990;28;45340;-61
2023/05/25 07:45:23;;;;;;;;;5.40;5.00;;;;;;;;5064372;28;45416;-62
2023/05/25 07:47:48;;;;;;;;;8.50;7.00;;;;;;;;5092295;27;45393;-61
2023/05/25 07:50:13;;;;;;;;;8.50;7.00;;;;;;;;5088372;27;45350;-61
2023/05/25 07:52:39;;;;;;;;;12.00;10.75;;;;;;;;5095143;27;45253;-62
2023/05/25 07:55:05;;;;;;;;;7.50;6.00;;;;;;;;5094221;27;45869;-60
2023/05/25 07:57:30;;;;;;;;;8.20;6.00;;;;;;;;5095049;27;45382;-63
2023/05/25 07:59:55;;;;;;;;;7.00;6.25;;;;;;;;5095040;27;45285;-62
2023/05/25 08:02:21;;;;;;;;;6.00;6.00;;;;;;;;5095510;27;45771;-62
2023/05/25 08:04:46;;;;;;;;;8.75;6.00;;;;;;;;5067438;27;46176;-63
2023/05/25 08:07:11;;;;;;;;;5.50;5.50;;;;;;;;5066346;28;45471;-62
2023/05/25 08:09:37;;;;;;;;;9.75;8.00;;;;;;;;5073146;27;45372;-63
2023/05/25 08:12:02;;;;;;;;;8.00;8.00;;;;;;;;5072614;28;45285;-62
2023/05/25 08:14:27;;;;;;;;;10.00;7.00;;;;;;;;5072838;27;46565;-62
2023/05/25 08:16:53;;;;;;;;;9.00;6.00;;;;;;;;5071927;28;45750;-62
2023/05/25 08:19:18;;;;;;;;;9.25;7.00;;;;;;;;5071456;28;45403;-62
2023/05/25 08:21:43;;;;;;;;;7.00;7.00;;;;;;;;5072837;27;45530;-62
2023/05/25 08:24:09;;;;;;;;;6.25;5.00;;;;;;;;5072650;27;46145;-62
2023/05/25 08:26:35;;;;;;;;;5.00;5.00;;;;;;;;5073079;27;45273;-63
2023/05/25 08:29:01;;;;;;;;;8.40;6.40;;;;;;;;5071604;28;45387;-63
2023/05/25 08:31:26;;;;;;;;;8.80;5.60;;;;;;;;5073130;27;45404;-63
2023/05/25 08:33:52;;;;;;;;;7.75;7.75;;;;;;;;5071159;28;46578;-63
2023/05/25 08:36:17;;;;;;;;;7.50;6.50;;;;;;;;5072217;27;45580;-64
2023/05/25 08:38:42;;;;;;;;;8.75;7.00;;;;;;;;5076094;28;45381;-62
2023/05/25 08:41:08;;;;;;;;;9.25;7.00;;;;;;;;5076279;27;45729;-59
2023/05/25 08:43:33;;;;;;;;;8.25;6.00;;;;;;;;5075686;27;45778;-60
2023/05/25 08:46:02;;;;;;;;;8.25;7.00;;;;;;;;5076117;28;45454;-63
2023/05/25 08:48:28;;;;;;;;;5.20;5.20;;;;;;;;5076225;27;45312;-62
2023/05/25 08:50:53;;;;;;;;;5.00;5.00;;;;;;;;5073964;27;45323;-63
2023/05/25 08:53:18;;;;;;;;;7.00;7.00;;;;;;;;5093877;27;46129;-61
2023/05/25 08:55:44;;;;;;;;;5.50;5.50;;;;;;;;5095234;27;45488;-62
2023/05/25 08:58:13;;;;;;;;;6.50;5.50;;;;;;;;5078294;27;45838;-60
2023/05/25 09:00:41;;;;;;;;;8.40;5.60;;;;;;;;5095537;27;45463;-62
2023/05/25 09:03:12;;;;;;;;;4.60;4.60;;;;;;;;5096280;27;45469;-59
2023/05/25 09:05:38;;;;;;;;;6.00;5.00;;;;;;;;5086497;27;45444;-62
2023/05/25 09:08:05;;;;;;;;;4.75;4.75;;;;;;;;5094714;27;45762;-62
2023/05/25 09:10:31;;;;;;;;;6.80;6.60;;;;;;;;5076870;27;45528;-62
2023/05/25 09:12:56;;;;;;;;;8.00;5.00;;;;;;;;5074193;28;46237;-62
2023/05/25 09:15:21;;;;;;;;;5.00;3.25;;;;;;;;5075294;27;45352;-62
2023/05/25 09:17:47;;;;;;;;;6.75;5.50;;;;;;;;5075849;28;45265;-61
2023/05/25 09:20:15;;;;;;;;;6.00;4.00;;;;;;;;5074263;27;45323;-59
2023/05/25 09:22:40;;;;;;;;;7.40;5.40;;;;;;;;5075960;27;45830;-61
2023/05/25 09:25:09;;;;;;;;;6.00;6.00;;;;;;;;5075515;27;45328;-61
2023/05/25 09:27:36;;;;;;;;;6.20;6.20;;;;;;;;5074552;28;45445;-61
2023/05/25 09:30:01;;;;;;;;;5.20;5.20;;;;;;;;5074247;27;45697;-62
2023/05/25 09:32:27;;;;;;;;;7.25;5.75;;;;;;;;5075866;27;45891;-62
2023/05/25 09:34:54;;;;;;;;;6.75;6.75;;;;;;;;5075529;27;45369;-55
2023/05/25 09:37:19;;;;;;;;;7.60;5.80;;;;;;;;5075501;27;45352;-62
2023/05/25 09:39:45;;;;;;;;;9.75;6.50;;;;;;;;5073874;27;45860;-58
2023/05/25 09:42:10;;;;;;;;;6.00;6.00;;;;;;;;5088497;27;45351;-61
2023/05/25 09:44:35;;;;;;;;;7.50;6.25;;;;;;;;5086417;27;45314;-60
2023/05/25 09:47:01;;;;;;;;;6.00;5.00;;;;;;;;5074646;27;45791;-62
2023/05/25 09:49:26;;;;;;;;;5.00;5.00;;;;;;;;5073702;27;45622;-60
2023/05/25 09:51:52;;;;;;;;;6.00;4.75;;;;;;;;5074887;27;47462;-56
2023/05/25 09:54:17;;;;;;;;;7.00;6.00;;;;;;;;5077022;27;45438;-60
2023/05/25 09:56:42;;;;;;;;;6.50;4.75;;;;;;;;5095169;27;45857;-61
2023/05/25 09:59:08;;;;;;;;;5.00;5.00;;;;;;;;5095798;27;45404;-61
2023/05/25 10:01:33;;;;;;;;;5.00;5.00;;;;;;;;5095010;27;46063;-61
2023/05/25 10:04:00;;;;;;;;;5.75;3.75;;;;;;;;5095296;27;45415;-58
2023/05/25 10:06:25;;;;;;;;;5.80;5.80;;;;;;;;5087789;27;45343;-59
2023/05/25 10:08:51;;;;;;;;;5.75;5.75;;;;;;;;5097890;27;46173;-57
2023/05/25 10:11:16;;;;;;;;;5.00;5.00;;;;;;;;5088898;27;46203;-62
2023/05/25 10:13:45;;;;;;;;;5.75;5.75;;;;;;;;5104780;27;45747;-62
2023/05/25 10:16:16;;;;;;;;;5.00;4.00;;;;;;;;5073505;27;45406;-61
2023/05/25 10:18:43;;;;;;;;;5.00;5.00;;;;;;;;5071921;27;45757;-60
2023/05/25 10:21:09;;;;;;;;;5.20;4.20;;;;;;;;5077884;27;46253;-62
2023/05/25 10:23:36;;;;;;;;;8.00;6.00;;;;;;;;5092858;27;45391;-62
2023/05/25 10:26:02;;;;;;;;;5.00;5.00;;;;;;;;5095688;27;45398;-60
2023/05/25 10:28:28;;;;;;;;;6.50;4.75;;;;;;;;5095492;27;45341;-61
2023/05/25 10:30:54;;;;;;;;;6.75;6.75;;;;;;;;5077538;27;46105;-63
2023/05/25 10:33:19;;;;;;;;;10.00;7.80;;;;;;;;5064699;28;45443;-61
2023/05/25 10:35:45;;;;;;;;;7.50;6.50;;;;;;;;5076084;28;45426;-62
2023/05/25 10:38:11;;;;;;;;;4.00;3.00;;;;;;;;5075669;28;45458;-63
2023/05/25 10:40:36;;;;;;;;;3.50;3.00;;;;;;;;5040210;28;45803;-61
2023/05/25 10:43:01;;;;;;;;;6.50;5.25;;;;;;;;5075060;28;45380;-60
2023/05/25 10:45:27;;;;;;;;;7.00;7.00;;;;;;;;5070039;27;45335;-59
2023/05/25 10:47:52;;;;;;;;;6.75;6.50;;;;;;;;5096458;27;45519;-61
2023/05/25 10:50:21;;;;;;;;;5.00;5.00;;;;;;;;5096127;27;46593;-60
2023/05/25 10:52:56;;;;;;;;;6.80;6.00;;;;;;;;5096097;27;45588;-56
2023/05/25 10:55:21;;;;;;;;;8.80;5.80;;;;;;;;5077295;27;45375;-58
2023/05/25 10:57:47;;;;;;;;;6.25;6.25;;;;;;;;5077732;27;45616;-59
2023/05/25 11:00:12;;;;;;;;;6.50;4.50;;;;;;;;5076677;27;45432;-60
2023/05/25 11:02:47;;;;;;;;;7.00;5.50;;;;;;;;5077595;27;45346;-57
2023/05/25 11:05:25;;;;;;;;;3.20;3.20;;;;;;;;5077337;27;45345;-60
2023/05/25 11:07:57;;;;;;;;;2.60;2.00;;;;;;;;5095848;27;45454;-59
2023/05/25 11:10:40;;;;;;;;;4.80;4.80;;;;;;;;5056406;27;46209;-61
2023/05/25 11:13:24;;;;;;;;;6.40;6.40;;;;;;;;5093653;27;45669;-59
2023/05/25 11:16:08;;;;;;;;;4.60;4.60;;;;;;;;5089702;27;45899;-60
2023/05/25 11:18:36;;;;;;;;;7.60;6.60;;;;;;;;5071265;27;45528;-60
2023/05/25 11:21:11;;;;;;;;;5.00;5.00;;;;;;;;5072977;28;45709;-61
2023/05/25 11:23:57;;;;;;;;;4.60;4.60;;;;;;;;5073323;28;45320;-61
2023/05/25 11:26:23;;;;;;;;;4.00;3.60;;;;;;;;5072152;28;45368;-59
2023/05/25 11:28:49;;;;;;;;;5.20;4.40;;;;;;;;5055114;28;45593;-61
2023/05/25 11:31:16;;;;;;;;;6.60;5.60;;;;;;;;5073148;28;46670;-59
2023/05/25 11:33:43;;;;;;;;;6.00;5.80;;;;;;;;5072674;28;45440;-60
2023/05/25 11:36:08;;;;;;;;;4.00;3.80;;;;;;;;5055642;28;45378;-61
2023/05/25 11:38:34;;;;;;;;;4.50;4.50;;;;;;;;5073361;28;45388;-58
2023/05/25 11:41:02;;;;;;;;;4.50;4.50;;;;;;;;5073551;28;46106;-58
2023/05/25 11:43:28;;;;;;;;;6.60;5.00;;;;;;;;5074694;28;45401;-57
2023/05/25 11:45:55;;;;;;;;;4.80;4.40;;;;;;;;5073478;28;45450;-56
2023/05/25 11:48:20;;;;;;;;;5.40;5.40;;;;;;;;5074947;28;45629;-58
2023/05/25 11:50:46;;;;;;;;;3.00;3.00;;;;;;;;5075189;28;45394;-60
2023/05/25 11:53:11;;;;;;;;;5.00;3.50;;;;;;;;5056658;28;45859;-59
2023/05/25 11:55:39;;;;;;;;;3.00;3.00;;;;;;;;5075172;28;45280;-59
2023/05/25 11:58:05;;;;;;;;;4.40;4.00;;;;;;;;5074959;28;45576;-58
2023/05/25 12:00:31;;;;;;;;;2.75;2.75;;;;;;;;5074788;28;46057;-56
2023/05/25 12:02:56;;;;;;;;;5.60;5.60;;;;;;;;5074557;28;45449;-55
2023/05/25 12:05:22;;;;;;;;;4.00;4.00;;;;;;;;5074680;28;45313;-58
2023/05/25 12:07:47;;;;;;;;;4.25;4.25;;;;;;;;5074916;28;45524;-59
2023/05/25 12:10:15;;;;;;;;;6.25;6.00;;;;;;;;5025519;28;47523;-57
2023/05/25 12:12:40;;;;;;;;;4.80;4.00;;;;;;;;5077921;28;45592;-57
2023/05/25 12:15:06;;;;;;;;;5.50;4.75;;;;;;;;5078038;28;45449;-56
2023/05/25 12:17:32;;;;;;;;;4.50;4.00;;;;;;;;5060120;28;45555;-56
2023/05/25 12:19:57;;;;;;;;;5.00;4.00;;;;;;;;5078402;28;46146;-57
2023/05/25 12:22:22;;;;;;;;;5.00;5.00;;;;;;;;5059701;28;45357;-57
2023/05/25 12:24:48;;;;;;;;;4.00;4.00;;;;;;;;5078356;28;45251;-58
2023/05/25 12:27:16;;;;;;;;;5.50;4.00;;;;;;;;5078266;28;45320;-57
2023/05/25 12:29:45;;;;;;;;;4.40;4.40;;;;;;;;5077688;28;46297;-57
2023/05/25 12:32:10;;;;;;;;;4.20;3.60;;;;;;;;5078078;28;45407;-60
2023/05/25 12:34:35;;;;;;;;;5.50;5.00;;;;;;;;5078156;28;45312;-57
2023/05/25 12:37:01;;;;;;;;;3.75;3.75;;;;;;;;5078336;28;45313;-56
2023/05/25 12:39:29;;;;;;;;;5.75;4.75;;;;;;;;5077877;28;46000;-57
2023/05/25 12:41:55;;;;;;;;;5.00;5.00;;;;;;;;5077920;28;45289;-57
2023/05/25 12:44:24;;;;;;;;;4.50;3.50;;;;;;;;5077544;28;45333;-58
2023/05/25 12:46:50;;;;;;;;;5.40;4.00;;;;;;;;5077955;28;45496;-57
2023/05/25 12:49:31;;;;;;;;;6.25;6.25;;;;;;;;5077846;28;47014;-56
2023/05/25 12:51:57;;;;;;;;;6.00;4.20;;;;;;;;5059396;28;45332;-60
2023/05/25 12:54:42;;;;;;;;;5.00;2.50;;;;;;;;5077709;28;45635;-58
2023/05/25 12:57:08;;;;;;;;;6.00;5.00;;;;;;;;5078036;28;45401;-57
2023/05/25 12:59:34;;;;;;;;;9.00;5.50;;;;;;;;5077478;28;45402;-56
2023/05/25 13:01:59;;;;;;;;;4.20;4.20;;;;;;;;5077314;28;45360;-59
2023/05/25 13:04:25;;;;;;;;;5.00;4.75;;;;;;;;5066230;27;45229;-58
2023/05/25 13:06:50;;;;;;;;;6.00;3.00;;;;;;;;5057728;28;45472;-58
2023/05/25 13:09:16;;;;;;;;;6.50;4.00;;;;;;;;5057339;28;46272;-58
2023/05/25 13:11:41;;;;;;;;;4.25;4.25;;;;;;;;5038763;28;45462;-58
2023/05/25 13:14:06;;;;;;;;;6.25;5.50;;;;;;;;5057424;28;45400;-58
2023/05/25 13:16:32;;;;;;;;;3.00;3.00;;;;;;;;5039121;28;45471;-58
2023/05/25 13:18:57;;;;;;;;;2.00;2.00;;;;;;;;5056911;28;45424;-58
2023/05/25 13:21:22;;;;;;;;;5.25;5.00;;;;;;;;5055895;28;45316;-59
2023/05/25 13:23:48;;;;;;;;;3.25;3.25;;;;;;;;5057071;28;45346;-57
2023/05/25 13:26:13;;;;;;;;;4.00;4.00;;;;;;;;5057498;28;45207;-56
2023/05/25 13:28:38;;;;;;;;;4.75;4.75;;;;;;;;5038817;28;46513;-57
2023/05/25 13:31:03;;;;;;;;;3.00;3.00;;;;;;;;5038594;28;45396;-58
2023/05/25 13:33:29;;;;;;;;;3.50;3.50;;;;;;;;5057069;28;45356;-58
2023/05/25 13:35:57;;;;;;;;;5.50;4.25;;;;;;;;5057252;28;45289;-59
2023/05/25 13:38:26;;;;;;;;;3.00;3.00;;;;;;;;5056221;28;46781;-58
2023/05/25 13:40:51;;;;;;;;;5.20;5.00;;;;;;;;5056308;28;45464;-58
2023/05/25 13:43:17;;;;;;;;;5.25;5.25;;;;;;;;5056397;28;45380;-57
2023/05/25 13:45:42;;;;;;;;;7.00;6.00;;;;;;;;5064981;28;45434;-57
2023/05/25 13:48:07;;;;;;;;;5.00;5.00;;;;;;;;5076581;28;45472;-58
2023/05/25 13:50:33;;;;;;;;;8.25;8.25;;;;;;;;5076655;28;45320;-58
2023/05/25 13:52:58;;;;;;;;;4.25;4.25;;;;;;;;5076534;28;45258;-59
2023/05/25 13:55:23;;;;;;;;;8.75;7.50;;;;;;;;5076744;28;45300;-59
2023/05/25 13:57:50;;;;;;;;;6.75;6.50;;;;;;;;5076305;28;45611;-58
2023/05/25 14:00:16;;;;;;;;;5.60;5.60;;;;;;;;5076394;28;45472;-57
2023/05/25 14:02:41;;;;;;;;;6.00;6.00;;;;;;;;5057983;28;45345;-57
2023/05/25 14:05:06;;;;;;;;;7.75;6.75;;;;;;;;5076653;28;45388;-58
2023/05/25 14:07:32;;;;;;;;;9.00;6.50;;;;;;;;5076224;28;46283;-58
2023/05/25 14:09:57;;;;;;;;;7.50;5.75;;;;;;;;5076491;28;45277;-58
2023/05/25 14:12:22;;;;;;;;;6.00;5.25;;;;;;;;5076514;28;45432;-57
2023/05/25 14:14:48;;;;;;;;;7.50;6.25;;;;;;;;5057128;28;45451;-59
2023/05/25 14:17:13;;;;;;;;;8.00;6.50;;;;;;;;5046612;28;46117;-58
2023/05/25 14:19:38;;;;;;;;;5.75;5.75;;;;;;;;5055530;28;45492;-58
2023/05/25 14:22:04;;;;;;;;;6.00;6.00;;;;;;;;5035983;28;45453;-55
2023/05/25 14:24:29;;;;;;;;;7.75;7.00;;;;;;;;5055745;28;45508;-57